Time;durP1;ratioP1;P1;durP2;ratioP2;P2;SDS_P1;SDS_P2;PMS_P1;PMS_P2;Temp;Humidity;BMP_temperature;BMP_pressure;BME280_temperature;BME280_humidity;BME280_pressure;Samples;Min_cycle;Max_cycle;Signal;HPM_P1;HPM_P2
2022/07/01 00:01:21;;;;;;;;;;;;;;;21.20;64.25;100141.91;6160843;23;1302;-89
2022/07/01 00:03:49;;;;;;;;;;;;;;;20.96;64.04;100157.59;6160579;23;898;-89
2022/07/01 00:06:15;;;;;;;;;;;;;;;21.11;64.00;100150.41;6186615;23;1270;-89
2022/07/01 00:08:40;;;;;;;;;;;;;;;20.93;64.00;100154.72;6160571;23;1498;-88
2022/07/01 00:11:05;;;;;;;;;;;;;;;21.00;63.77;100146.56;6160976;23;1900;-88
2022/07/01 00:13:31;;;;;;;;;;;;;;;20.91;63.95;100137.59;6187175;23;977;-88
2022/07/01 00:15:57;;;;;;;;;;;;;;;21.06;63.96;100145.94;6160833;23;1160;-87
2022/07/01 00:18:23;;;;;;;;;;;;;;;20.60;64.50;100146.69;6160704;23;1262;-88
2022/07/01 00:20:48;;;;;;;;;;;;;;;20.61;64.13;100151.91;6187432;23;888;-88
2022/07/01 00:23:14;;;;;;;;;;;;;;;20.65;64.39;100155.59;6187071;23;1024;-88
2022/07/01 00:25:39;;;;;;;;;;;;;;;20.56;64.84;100163.28;6161265;23;1316;-88
2022/07/01 00:28:04;;;;;;;;;;;;;;;20.90;64.64;100161.81;6160422;23;1302;-89
2022/07/01 00:30:30;;;;;;;;;;;;;;;20.53;64.84;100168.75;6160603;23;1893;-89
2022/07/01 00:32:55;;;;;;;;;;;;;;;20.22;63.80;100167.47;6161031;23;1191;-88
2022/07/01 00:35:20;;;;;;;;;;;;;;;20.07;64.95;100172.97;6187262;23;996;-88
2022/07/01 00:37:45;;;;;;;;;;;;;;;20.45;63.88;100167.75;6160871;23;1751;-87
2022/07/01 00:40:11;;;;;;;;;;;;;;;20.47;63.74;100167.41;6160611;23;1060;-89
2022/07/01 00:42:40;;;;;;;;;;;;;;;20.67;63.83;100161.59;6160927;23;1368;-88
2022/07/01 00:45:06;;;;;;;;;;;;;;;20.44;63.25;100156.97;6186972;23;900;-89
2022/07/01 00:47:31;;;;;;;;;;;;;;;20.04;63.82;100157.81;6160748;23;1299;-88
2022/07/01 00:49:57;;;;;;;;;;;;;;;20.39;63.75;100155.28;6160675;23;1901;-89
2022/07/01 00:52:22;;;;;;;;;;;;;;;20.58;63.73;100162.94;6187103;23;786;-89
2022/07/01 00:54:47;;;;;;;;;;;;;;;20.36;63.46;100162.34;6161054;23;1017;-89
2022/07/01 00:57:12;;;;;;;;;;;;;;;20.11;64.81;100154.41;6160892;23;1204;-88
2022/07/01 00:59:38;;;;;;;;;;;;;;;20.47;64.52;100159.88;6161034;23;1169;-88
2022/07/01 01:02:04;;;;;;;;;;;;;;;20.08;64.08;100167.03;6187341;23;822;-89
2022/07/01 01:04:29;;;;;;;;;;;;;;;19.55;66.15;100159.88;6186922;23;818;-89
2022/07/01 01:06:54;;;;;;;;;;;;;;;19.91;65.18;100158.97;6160599;23;1226;-88
2022/07/01 01:09:19;;;;;;;;;;;;;;;20.23;64.75;100162.72;6186612;23;1876;-89
2022/07/01 01:11:45;;;;;;;;;;;;;;;20.29;63.34;100164.09;6160599;23;870;-88
2022/07/01 01:14:10;;;;;;;;;;;;;;;20.34;63.36;100159.09;6186372;23;985;-89
2022/07/01 01:16:37;;;;;;;;;;;;;;;20.30;63.67;100165.69;6160499;23;1289;-89
2022/07/01 01:19:05;;;;;;;;;;;;;;;19.76;64.90;100179.97;6160051;23;1303;-88
2022/07/01 01:21:31;;;;;;;;;;;;;;;19.62;65.57;100185.91;6187782;23;806;-88
2022/07/01 01:23:57;;;;;;;;;;;;;;;19.82;66.03;100194.44;6188048;23;1020;-89
2022/07/01 01:26:24;;;;;;;;;;;;;;;19.73;65.96;100210.44;6162936;23;1289;-88
2022/07/01 01:28:49;;;;;;;;;;;;;;;19.29;65.88;100224.03;6161861;23;1322;-88
2022/07/01 01:31:15;;;;;;;;;;;;;;;19.26;66.37;100217.22;6165222;23;1858;-88
2022/07/01 01:33:41;;;;;;;;;;;;;;;19.23;66.78;100212.34;6161276;23;1319;-89
2022/07/01 01:36:09;;;;;;;;;;;;;;;19.06;67.56;100204.22;6188483;23;1025;-88
2022/07/01 01:38:35;;;;;;;;;;;;;;;19.43;67.67;100207.03;6187846;23;1299;-89
2022/07/01 01:41:00;;;;;;;;;;;;;;;19.39;67.46;100193.06;6188234;23;1005;-89
2022/07/01 01:43:25;;;;;;;;;;;;;;;19.12;67.38;100194.53;6161539;23;1278;-89
2022/07/01 01:45:50;;;;;;;;;;;;;;;18.93;67.38;100210.91;6154798;23;1992;-88
2022/07/01 01:48:15;;;;;;;;;;;;;;;19.22;65.96;100223.81;6154188;23;989;-88
2022/07/01 01:50:41;;;;;;;;;;;;;;;19.35;66.55;100233.75;6154327;23;1904;-88
2022/07/01 01:53:06;;;;;;;;;;;;;;;19.42;66.20;100252.59;6154107;23;1044;-88
2022/07/01 01:55:31;;;;;;;;;;;;;;;19.34;67.01;100261.84;6154175;23;1315;-88
2022/07/01 01:57:56;;;;;;;;;;;;;;;19.55;65.84;100265.38;6154470;23;1018;-87
2022/07/01 02:00:21;;;;;;;;;;;;;;;19.66;65.95;100277.63;6154230;23;1208;-89
2022/07/01 02:02:46;;;;;;;;;;;;;;;19.79;65.21;100275.69;6155440;23;771;-88
2022/07/01 02:05:13;;;;;;;;;;;;;;;19.58;64.38;100295.22;6155193;23;1193;-89
2022/07/01 02:07:38;;;;;;;;;;;;;;;18.86;65.33;100280.00;6155468;23;824;-89
2022/07/01 02:10:03;;;;;;;;;;;;;;;18.84;66.74;100266.47;6154013;23;1885;-87
2022/07/01 02:12:29;;;;;;;;;;;;;;;18.46;67.60;100263.03;6154254;23;1160;-88
2022/07/01 02:14:54;;;;;;;;;;;;;;;18.63;68.12;100270.44;6153455;23;1192;-88
2022/07/01 02:17:19;;;;;;;;;;;;;;;19.01;66.37;100273.81;6155582;23;1027;-87
2022/07/01 02:19:44;;;;;;;;;;;;;;;19.02;66.02;100275.44;6153986;23;969;-89
2022/07/01 02:22:09;;;;;;;;;;;;;;;19.09;65.89;100286.78;6153600;23;1056;-88
2022/07/01 02:24:34;;;;;;;;;;;;;;;18.84;66.57;100287.84;6154120;23;933;-88
2022/07/01 02:26:59;;;;;;;;;;;;;;;19.18;65.63;100300.56;6154312;23;1244;-87
2022/07/01 02:29:25;;;;;;;;;;;;;;;19.40;65.84;100310.41;6153915;23;1885;-88
2022/07/01 02:31:50;;;;;;;;;;;;;;;19.46;66.02;100315.44;6155767;23;1122;-87
2022/07/01 02:34:15;;;;;;;;;;;;;;;19.49;65.44;100314.75;6153870;23;907;-89
2022/07/01 02:36:40;;;;;;;;;;;;;;;18.94;66.47;100315.16;6154297;23;1290;-88
2022/07/01 02:39:05;;;;;;;;;;;;;;;19.00;67.00;100327.66;6155741;23;1174;-88
2022/07/01 02:41:30;;;;;;;;;;;;;;;18.74;67.93;100324.31;6154346;23;1260;-88
2022/07/01 02:43:56;;;;;;;;;;;;;;;18.78;67.96;100317.75;6153762;23;1045;-89
2022/07/01 02:46:21;;;;;;;;;;;;;;;19.06;66.65;100315.19;6155480;23;1265;-88
2022/07/01 02:48:46;;;;;;;;;;;;;;;19.11;66.31;100319.72;6154248;23;1165;-89
2022/07/01 02:51:12;;;;;;;;;;;;;;;19.26;66.85;100330.19;6153947;23;1948;-88
2022/07/01 02:53:37;;;;;;;;;;;;;;;19.26;66.23;100342.09;6154280;23;699;-89
2022/07/01 02:56:02;;;;;;;;;;;;;;;19.11;65.55;100331.66;6155798;23;1208;-88
2022/07/01 02:58:27;;;;;;;;;;;;;;;19.23;66.18;100339.16;6152621;23;1141;-89
2022/07/01 03:00:53;;;;;;;;;;;;;;;19.08;65.31;100340.63;6154130;23;962;-89
2022/07/01 03:03:19;;;;;;;;;;;;;;;18.82;66.37;100342.84;6153655;23;1208;-88
2022/07/01 03:05:44;;;;;;;;;;;;;;;18.85;67.48;100348.53;6155607;23;1200;-89
2022/07/01 03:08:09;;;;;;;;;;;;;;;18.77;66.32;100349.41;6154028;23;930;-88
2022/07/01 03:10:34;;;;;;;;;;;;;;;18.97;66.00;100361.63;6155527;23;1920;-89
2022/07/01 03:13:01;;;;;;;;;;;;;;;18.48;66.25;100361.34;6155005;23;765;-88
2022/07/01 03:15:27;;;;;;;;;;;;;;;18.78;65.11;100356.59;6153923;23;1294;-89
2022/07/01 03:17:52;;;;;;;;;;;;;;;18.77;66.43;100368.81;6154354;23;1176;-90
2022/07/01 03:20:17;;;;;;;;;;;;;;;18.84;65.55;100371.84;6153955;23;1168;-89
2022/07/01 03:22:43;;;;;;;;;;;;;;;19.03;64.38;100370.56;6155257;23;1000;-90
2022/07/01 03:25:09;;;;;;;;;;;;;;;18.89;64.11;100370.81;6153653;23;1258;-89
2022/07/01 03:27:34;;;;;;;;;;;;;;;19.04;64.50;100369.41;6154198;23;1177;-90
2022/07/01 03:29:59;;;;;;;;;;;;;;;18.90;65.22;100370.50;6154122;23;1915;-90
2022/07/01 03:32:26;;;;;;;;;;;;;;;18.75;65.42;100361.97;6154981;23;807;-89
2022/07/01 03:34:51;;;;;;;;;;;;;;;18.63;65.37;100362.72;6154513;23;1251;-89
2022/07/01 03:37:17;;;;;;;;;;;;;;;18.75;65.85;100359.22;6154019;23;1206;-90
2022/07/01 03:39:43;;;;;;;;;;;;;;;18.88;64.83;100367.25;6154091;23;1360;-89
2022/07/01 03:42:08;;;;;;;;;;;;;;;18.47;66.98;100369.97;6155556;23;1157;-89
2022/07/01 03:44:34;;;;;;;;;;;;;;;18.69;67.01;100378.03;6162480;23;1005;-89
2022/07/01 03:46:59;;;;;;;;;;;;;;;18.88;66.65;100380.31;6155091;23;1424;-89
2022/07/01 03:49:25;;;;;;;;;;;;;;;18.90;65.68;100384.34;6157153;23;1920;-90
2022/07/01 03:51:51;;;;;;;;;;;;;;;18.95;66.81;100379.78;6155275;23;1181;-89
2022/07/01 03:54:32;;;;;;;;;;;;;;;19.05;65.27;100373.81;6157255;23;984;-90
2022/07/01 03:56:58;;;;;;;;;;;;;;;19.04;64.69;100373.00;6157219;23;1307;-88
2022/07/01 03:59:24;;;;;;;;;;;;;;;18.95;65.27;100374.22;6155814;23;1346;-90
2022/07/01 04:01:49;;;;;;;;;;;;;;;18.94;64.98;100378.16;6156923;23;774;-90
2022/07/01 04:04:14;;;;;;;;;;;;;;;18.53;66.64;100386.09;6155521;23;938;-90
2022/07/01 04:06:40;;;;;;;;;;;;;;;18.16;66.31;100375.88;6155194;23;1192;-90
2022/07/01 04:09:05;;;;;;;;;;;;;;;18.39;66.93;100371.66;6157789;23;1042;-90
2022/07/01 04:11:31;;;;;;;;;;;;;;;18.54;66.30;100376.59;6157076;23;1938;-90
2022/07/01 04:13:56;;;;;;;;;;;;;;;18.67;66.12;100374.75;6156725;23;1021;-89
2022/07/01 04:16:22;;;;;;;;;;;;;;;18.85;66.37;100373.47;6156850;23;1266;-91
2022/07/01 04:18:47;;;;;;;;;;;;;;;18.46;65.01;100374.69;6155737;23;1184;-89
2022/07/01 04:23:56;;;;;;;;;;;;;;;18.72;66.07;100371.78;6156941;23;652;-90
2022/07/01 04:26:22;;;;;;;;;;;;;;;18.76;66.31;100369.16;6156851;23;1188;-91
2022/07/01 04:28:47;;;;;;;;;;;;;;;18.69;65.51;100366.13;6156703;23;782;-89
2022/07/01 04:31:12;;;;;;;;;;;;;;;18.34;66.08;100371.88;6155053;23;1885;-89
2022/07/01 04:33:37;;;;;;;;;;;;;;;18.20;67.37;100371.31;6155071;23;846;-89
2022/07/01 04:36:02;;;;;;;;;;;;;;;18.46;66.67;100388.56;6155296;23;1200;-89
2022/07/01 04:38:28;;;;;;;;;;;;;;;18.55;65.60;100402.38;6156560;23;996;-90
2022/07/01 04:43:37;;;;;;;;;;;;;;;18.80;66.22;100404.19;6156663;23;605;-88
2022/07/01 04:46:02;;;;;;;;;;;;;;;18.55;65.00;100402.38;6156452;23;1204;-89
2022/07/01 04:48:27;;;;;;;;;;;;;;;18.53;65.95;100388.88;6155234;23;1426;-88
2022/07/01 04:50:53;;;;;;;;;;;;;;;18.60;65.62;100395.84;6155217;23;1932;-88
2022/07/01 04:53:18;;;;;;;;;;;;;;;18.17;65.72;100385.81;6154434;23;1256;-89
2022/07/01 04:55:43;;;;;;;;;;;;;;;18.40;66.49;100387.16;6154555;23;1279;-89
2022/07/01 04:58:08;;;;;;;;;;;;;;;18.51;67.21;100382.03;6153800;23;753;-89
2022/07/01 05:00:33;;;;;;;;;;;;;;;18.24;66.16;100383.34;6153567;23;1366;-88
2022/07/01 05:02:58;;;;;;;;;;;;;;;18.34;65.67;100380.19;6153760;23;1128;-90
2022/07/01 05:05:23;;;;;;;;;;;;;;;18.25;66.08;100378.59;6153446;23;1211;-89
2022/07/01 05:07:49;;;;;;;;;;;;;;;18.26;65.96;100381.03;6153678;23;957;-89
2022/07/01 05:10:14;;;;;;;;;;;;;;;18.51;66.70;100393.13;6153724;23;1884;-90
2022/07/01 05:12:39;;;;;;;;;;;;;;;18.59;67.61;100389.50;6155464;23;802;-89
2022/07/01 05:15:04;;;;;;;;;;;;;;;18.31;65.92;100393.88;6154605;23;1255;-90
2022/07/01 05:22:58;;;;;;;;;;;;;;;18.52;66.36;100423.28;6154600;23;696;-89
2022/07/01 05:25:23;;;;;;;;;;;;;;;18.52;65.40;100417.72;6154526;23;1407;-90
2022/07/01 05:27:48;;;;;;;;;;;;;;;18.47;66.81;100404.06;6153772;23;1208;-90
2022/07/01 05:30:14;;;;;;;;;;;;;;;18.51;66.85;100404.19;6154858;23;1916;-90
2022/07/01 05:32:39;;;;;;;;;;;;;;;18.65;67.08;100420.59;6153303;23;1283;-89
2022/07/01 05:35:04;;;;;;;;;;;;;;;18.67;67.08;100415.53;6152785;23;1272;-89
2022/07/01 05:37:29;;;;;;;;;;;;;;;18.63;67.81;100420.94;6155402;23;1171;-89
2022/07/01 05:39:54;;;;;;;;;;;;;;;18.54;66.67;100425.72;6154725;23;677;-89
2022/07/01 05:42:20;;;;;;;;;;;;;;;18.34;67.38;100432.00;6154487;23;814;-89
2022/07/01 05:44:45;;;;;;;;;;;;;;;18.44;67.83;100426.09;6152917;23;1323;-89
2022/07/01 05:47:10;;;;;;;;;;;;;;;18.02;66.14;100416.84;6156060;23;1012;-89
2022/07/01 05:49:35;;;;;;;;;;;;;;;17.87;67.63;100422.91;6154348;23;1900;-89
2022/07/01 05:52:00;;;;;;;;;;;;;;;17.77;68.87;100419.38;6156161;23;1036;-89
2022/07/01 05:54:25;;;;;;;;;;;;;;;18.23;68.25;100409.41;6153736;23;1200;-89
2022/07/01 05:56:51;;;;;;;;;;;;;;;17.86;68.26;100413.81;6155288;23;1196;-90
2022/07/01 05:59:16;;;;;;;;;;;;;;;17.76;67.90;100406.69;6154448;23;1250;-90
2022/07/01 06:01:41;;;;;;;;;;;;;;;17.89;69.93;100404.84;6154787;23;1395;-90
2022/07/01 06:04:06;;;;;;;;;;;;;;;18.00;70.03;100396.97;6155937;23;988;-89
2022/07/01 06:06:31;;;;;;;;;;;;;;;17.84;69.28;100402.25;6154359;23;1164;-90
2022/07/01 06:08:56;;;;;;;;;;;;;;;17.48;69.48;100405.41;6154481;23;957;-90
2022/07/01 06:11:22;;;;;;;;;;;;;;;17.43;71.60;100411.13;6154116;23;1916;-90
2022/07/01 06:13:47;;;;;;;;;;;;;;;17.78;69.12;100415.44;6155632;23;1032;-90
2022/07/01 06:16:12;;;;;;;;;;;;;;;18.00;69.21;100433.78;6155898;23;1263;-90
2022/07/01 06:18:37;;;;;;;;;;;;;;;18.13;69.79;100438.28;6155823;23;980;-90
2022/07/01 06:21:02;;;;;;;;;;;;;;;18.03;70.44;100441.44;6153953;23;1296;-90
2022/07/01 06:23:28;;;;;;;;;;;;;;;17.95;69.66;100441.47;6155779;23;988;-89
2022/07/01 06:25:54;;;;;;;;;;;;;;;18.07;70.39;100441.59;6154163;23;1357;-90
2022/07/01 06:28:19;;;;;;;;;;;;;;;18.02;70.77;100441.78;6154193;23;1013;-90
2022/07/01 06:30:45;;;;;;;;;;;;;;;18.10;70.65;100449.25;6154049;23;1889;-91
2022/07/01 06:33:11;;;;;;;;;;;;;;;18.24;71.16;100447.06;6155856;23;813;-90
2022/07/01 06:35:37;;;;;;;;;;;;;;;18.11;69.38;100454.47;6154368;23;1282;-90
2022/07/01 06:38:02;;;;;;;;;;;;;;;18.10;70.00;100461.13;6154466;23;1299;-90
2022/07/01 06:40:27;;;;;;;;;;;;;;;18.15;70.44;100457.34;6155421;23;620;-89
2022/07/01 06:42:53;;;;;;;;;;;;;;;18.02;70.46;100450.09;6154172;23;934;-90
2022/07/01 06:45:18;;;;;;;;;;;;;;;18.01;70.55;100448.47;6154057;23;1317;-89
2022/07/01 06:47:43;;;;;;;;;;;;;;;17.92;69.49;100440.19;6156033;23;786;-91
2022/07/01 06:50:08;;;;;;;;;;;;;;;17.86;70.63;100449.81;6153070;23;1933;-91
2022/07/01 06:52:34;;;;;;;;;;;;;;;17.91;70.86;100470.97;6155574;23;982;-90
2022/07/01 06:55:00;;;;;;;;;;;;;;;18.04;71.01;100473.53;6155734;23;1268;-90
2022/07/01 06:57:26;;;;;;;;;;;;;;;17.91;71.06;100480.09;6156225;23;834;-90
2022/07/01 06:59:51;;;;;;;;;;;;;;;17.92;70.62;100484.50;6153991;23;1331;-91
2022/07/01 07:02:16;;;;;;;;;;;;;;;17.88;71.67;100489.06;6153991;23;1192;-89
2022/07/01 07:04:42;;;;;;;;;;;;;;;17.86;71.90;100494.13;6155424;23;1200;-90
2022/07/01 07:07:07;;;;;;;;;;;;;;;17.82;70.76;100492.31;6154052;23;1209;-90
2022/07/01 07:09:32;;;;;;;;;;;;;;;17.86;70.75;100496.09;6153959;23;1884;-91
2022/07/01 07:11:57;;;;;;;;;;;;;;;17.68;71.13;100501.66;6154184;23;1181;-90
2022/07/01 07:14:22;;;;;;;;;;;;;;;17.64;70.48;100492.34;6155410;23;985;-90
2022/07/01 07:16:48;;;;;;;;;;;;;;;17.63;71.18;100496.25;6155018;23;1362;-90
2022/07/01 07:19:13;;;;;;;;;;;;;;;17.64;70.40;100500.66;6157620;23;814;-89
2022/07/01 07:21:38;;;;;;;;;;;;;;;17.35;71.10;100515.13;6155849;23;1187;-89
2022/07/01 07:24:03;;;;;;;;;;;;;;;17.12;72.22;100510.88;6155758;23;1013;-89
2022/07/01 07:26:29;;;;;;;;;;;;;;;17.48;72.38;100499.50;6157442;23;1269;-87
2022/07/01 07:28:54;;;;;;;;;;;;;;;17.67;70.98;100496.44;6156274;23;1044;-88
2022/07/01 07:31:19;;;;;;;;;;;;;;;17.69;71.06;100502.47;6155875;23;1892;-88
2022/07/01 07:33:44;;;;;;;;;;;;;;;17.60;71.06;100507.97;6158221;23;774;-89
2022/07/01 07:36:09;;;;;;;;;;;;;;;17.64;70.81;100500.66;6156093;23;1336;-89
2022/07/01 07:38:36;;;;;;;;;;;;;;;17.62;70.35;100510.44;6156805;23;995;-89
2022/07/01 07:41:04;;;;;;;;;;;;;;;17.60;71.20;100512.69;6156714;23;1279;-89
2022/07/01 07:43:29;;;;;;;;;;;;;;;17.59;69.55;100519.38;6156317;23;1196;-91
2022/07/01 07:45:54;;;;;;;;;;;;;;;17.71;70.72;100523.13;6157191;23;1255;-89
2022/07/01 07:48:19;;;;;;;;;;;;;;;17.84;69.51;100534.34;6157129;23;871;-90
2022/07/01 07:50:45;;;;;;;;;;;;;;;17.83;70.07;100538.25;6157236;23;1928;-90
2022/07/01 07:53:11;;;;;;;;;;;;;;;17.75;71.33;100550.97;6157013;23;1348;-89
2022/07/01 07:55:37;;;;;;;;;;;;;;;17.82;70.87;100548.53;6158222;23;1263;-89
2022/07/01 07:58:04;;;;;;;;;;;;;;;17.86;70.29;100551.47;6156026;23;1244;-88
2022/07/01 08:00:29;;;;;;;;;;;;;;;17.75;71.49;100549.03;6155536;23;1259;-89
2022/07/01 08:02:54;;;;;;;;;;;;;;;17.75;71.26;100549.03;6155807;23;1296;-90
2022/07/01 08:05:19;;;;;;;;;;;;;;;17.60;70.95;100551.44;6155836;23;1306;-89
2022/07/01 08:07:45;;;;;;;;;;;;;;;17.58;72.49;100556.50;6155537;23;1220;-87
2022/07/01 08:10:11;;;;;;;;;;;;;;;17.49;70.54;100552.91;6155713;23;1882;-87
2022/07/01 08:12:37;;;;;;;;;;;;;;;17.49;70.96;100559.25;6156056;23;1264;-87
2022/07/01 08:15:02;;;;;;;;;;;;;;;17.50;70.49;100558.13;6155469;23;1260;-88
2022/07/01 08:17:28;;;;;;;;;;;;;;;17.49;72.11;100553.72;6157399;23;1055;-88
2022/07/01 08:19:53;;;;;;;;;;;;;;;17.58;71.49;100546.22;6157087;23;839;-88
2022/07/01 08:22:19;;;;;;;;;;;;;;;17.40;69.53;100548.19;6155709;23;1016;-87
2022/07/01 08:24:44;;;;;;;;;;;;;;;17.47;70.31;100569.81;6157038;23;1282;-89
2022/07/01 08:27:09;;;;;;;;;;;;;;;17.50;70.11;100574.72;6155654;23;1175;-88
2022/07/01 08:29:35;;;;;;;;;;;;;;;17.34;70.73;100560.56;6156776;23;1896;-89
2022/07/01 08:32:01;;;;;;;;;;;;;;;17.53;72.11;100590.66;6156980;23;886;-88
2022/07/01 08:34:26;;;;;;;;;;;;;;;17.64;70.67;100591.19;6156333;23;977;-88
2022/07/01 08:36:51;;;;;;;;;;;;;;;17.64;70.63;100603.09;6156548;23;1152;-89
2022/07/01 08:39:16;;;;;;;;;;;;;;;17.46;70.39;100601.41;6154700;23;1300;-88
2022/07/01 08:41:42;;;;;;;;;;;;;;;17.30;70.21;100608.53;6154866;23;1283;-89
2022/07/01 08:44:08;;;;;;;;;;;;;;;17.36;69.76;100604.47;6154650;23;1244;-89
2022/07/01 08:46:33;;;;;;;;;;;;;;;17.12;71.12;100609.63;6156553;23;1251;-89
2022/07/01 08:48:58;;;;;;;;;;;;;;;17.26;70.87;100613.13;6156186;23;973;-89
2022/07/01 08:51:23;;;;;;;;;;;;;;;17.44;70.17;100619.50;6156480;23;1892;-88
2022/07/01 08:53:48;;;;;;;;;;;;;;;17.61;70.09;100625.03;6154211;23;1035;-88
2022/07/01 08:58:57;;;;;;;;;;;;;;;17.66;70.23;100622.97;6156083;23;685;-89
2022/07/01 09:01:23;;;;;;;;;;;;;;;17.76;69.91;100627.38;6155756;23;1037;-88
2022/07/01 09:03:49;;;;;;;;;;;;;;;17.79;70.11;100623.94;6155540;23;799;-87
2022/07/01 09:06:17;;;;;;;;;;;;;;;17.59;69.09;100622.59;6155488;23;1197;-89
2022/07/01 09:08:42;;;;;;;;;;;;;;;17.58;69.50;100625.69;6154239;23;1260;-88
2022/07/01 09:11:14;;;;;;;;;;;;;;;17.56;67.94;100620.47;6154773;23;2295;-88
2022/07/01 09:13:40;;;;;;;;;;;;;;;17.76;68.31;100628.19;6156257;23;775;-89
2022/07/01 09:16:12;;;;;;;;;;;;;;;17.87;68.15;100633.38;6154876;23;1242;-88
2022/07/01 09:18:37;;;;;;;;;;;;;;;17.86;69.72;100623.47;6153982;23;1393;-89
2022/07/01 09:21:08;;;;;;;;;;;;;;;17.98;69.25;100620.81;6154184;23;1110;-88
2022/07/01 09:23:33;;;;;;;;;;;;;;;17.81;68.39;100629.13;6156349;23;833;-89
2022/07/01 09:25:58;;;;;;;;;;;;;;;17.92;69.60;100634.03;6154307;23;1282;-89
2022/07/01 09:28:25;;;;;;;;;;;;;;;17.87;69.48;100642.50;6154036;23;965;-88
2022/07/01 09:30:54;;;;;;;;;;;;;;;17.92;69.13;100639.56;6154091;23;1884;-87
2022/07/01 09:33:21;;;;;;;;;;;;;;;17.97;68.35;100638.59;6155205;23;798;-89
2022/07/01 09:35:50;;;;;;;;;;;;;;;18.01;70.02;100629.31;6155547;23;1192;-88
2022/07/01 09:38:16;;;;;;;;;;;;;;;18.00;69.42;100633.22;6153994;23;1176;-89
2022/07/01 09:41:02;;;;;;;;;;;;;;;18.00;68.45;100637.94;6153690;23;1279;-88
2022/07/01 09:43:34;;;;;;;;;;;;;;;17.94;68.26;100634.53;6155538;23;782;-87
2022/07/01 09:46:09;;;;;;;;;;;;;;;18.04;68.32;100625.06;6155581;23;1263;-87
2022/07/01 09:48:34;;;;;;;;;;;;;;;18.23;66.36;100625.53;6155239;23;941;-89
2022/07/01 09:51:00;;;;;;;;;;;;;;;18.03;66.95;100629.78;6153523;23;1924;-87
2022/07/01 09:53:25;;;;;;;;;;;;;;;18.40;67.71;100630.22;6155094;23;996;-90
2022/07/01 09:55:50;;;;;;;;;;;;;;;18.51;66.21;100632.31;6154247;23;1238;-90
2022/07/01 09:58:15;;;;;;;;;;;;;;;18.68;66.51;100630.66;6156232;23;784;-88
2022/07/01 10:00:41;;;;;;;;;;;;;;;18.73;66.63;100631.28;6155662;23;1370;-89
2022/07/01 10:03:07;;;;;;;;;;;;;;;18.60;64.68;100628.72;6156422;23;1011;-89
2022/07/01 10:05:37;;;;;;;;;;;;;;;18.63;65.46;100628.09;6155849;23;1280;-88
2022/07/01 10:08:11;;;;;;;;;;;;;;;18.51;65.02;100592.69;6156146;23;1039;-88
2022/07/01 10:11:01;;;;;;;;;;;;;;;18.91;65.31;100623.72;6153943;23;1885;-88
2022/07/01 10:13:27;;;;;;;;;;;;;;;18.01;63.31;100621.00;6154121;23;1221;-87
2022/07/01 10:15:53;;;;;;;;;;;;;;;18.13;65.68;100620.31;6153637;23;1255;-88
2022/07/01 10:18:22;;;;;;;;;;;;;;;18.60;65.76;100614.88;6156174;23;965;-87
2022/07/01 10:20:48;;;;;;;;;;;;;;;18.73;65.08;100611.88;6155552;23;754;-87
2022/07/01 10:23:14;;;;;;;;;;;;;;;18.62;64.58;100618.94;6153517;23;1341;-87
2022/07/01 10:25:39;;;;;;;;;;;;;;;18.35;62.38;100611.81;6152930;23;1304;-87
2022/07/01 10:28:19;;;;;;;;;;;;;;;18.24;62.65;100610.53;6153693;23;1190;-89
2022/07/01 10:31:17;;;;;;;;;;;;;;;18.24;64.80;100613.31;6153861;23;1892;-88
2022/07/01 10:33:44;;;;;;;;;;;;;;;18.04;63.64;100608.44;6122595;23;1272;-88
2022/07/01 10:36:18;;;;;;;;;;;;;;;17.67;64.79;100613.50;6152551;23;1280;-88
2022/07/01 10:39:10;;;;;;;;;;;;;;;17.80;63.76;100608.13;6153193;23;1345;-88
2022/07/01 10:41:38;;;;;;;;;;;;;;;18.11;63.64;100609.59;6145287;23;1313;-88
2022/07/01 10:44:04;;;;;;;;;;;;;;;18.22;66.28;100614.75;6152044;23;1248;-87
2022/07/01 10:46:36;;;;;;;;;;;;;;;18.13;63.56;100612.81;6152133;23;1339;-88
2022/07/01 10:49:01;;;;;;;;;;;;;;;18.23;65.33;100606.13;6153686;23;1353;-88
2022/07/01 10:51:45;;;;;;;;;;;;;;;18.28;63.15;100611.50;6154628;23;1885;-87
2022/07/01 10:54:10;;;;;;;;;;;;;;;18.21;62.62;100613.94;6153962;23;1472;-87
2022/07/01 10:56:40;;;;;;;;;;;;;;;18.31;63.33;100612.78;6155021;23;1271;-87
2022/07/01 10:59:05;;;;;;;;;;;;;;;18.05;62.16;100612.84;6157491;23;1047;-86
2022/07/01 11:01:30;;;;;;;;;;;;;;;18.07;65.22;100610.56;6155859;23;1149;-88
2022/07/01 11:03:55;;;;;;;;;;;;;;;18.18;64.13;100616.56;6154761;23;1228;-88
2022/07/01 11:06:20;;;;;;;;;;;;;;;18.27;65.37;100626.50;6155481;23;1250;-89
2022/07/01 11:08:49;;;;;;;;;;;;;;;18.37;62.31;100628.91;6155252;23;1205;-89
2022/07/01 11:11:14;;;;;;;;;;;;;;;18.47;63.41;100636.06;6152054;23;1956;-88
2022/07/01 11:13:40;;;;;;;;;;;;;;;18.52;64.84;100638.69;6155257;23;909;-88
2022/07/01 11:16:05;;;;;;;;;;;;;;;18.59;64.56;100641.78;6156049;23;1192;-87
2022/07/01 11:18:30;;;;;;;;;;;;;;;18.56;63.25;100647.13;6155014;23;1277;-89
2022/07/01 11:21:02;;;;;;;;;;;;;;;18.74;63.70;100655.09;6155053;23;1320;-89
2022/07/01 11:23:27;;;;;;;;;;;;;;;18.92;63.39;100644.75;6155460;23;1134;-88
2022/07/01 11:25:52;;;;;;;;;;;;;;;18.94;62.89;100649.97;6152716;23;1184;-88
2022/07/01 11:28:17;;;;;;;;;;;;;;;18.70;62.51;100645.03;6153560;23;914;-88
2022/07/01 11:30:43;;;;;;;;;;;;;;;18.78;64.20;100647.75;6154473;23;1932;-88
2022/07/01 11:33:09;;;;;;;;;;;;;;;18.80;65.68;100644.63;6154013;23;1321;-87
2022/07/01 11:41:05;;;;;;;;;;;;;;;18.84;64.64;100634.50;6156399;23;643;-90
2022/07/01 11:43:33;;;;;;;;;;;;;;;18.77;63.50;100637.00;6155043;23;1319;-88
2022/07/01 11:46:00;;;;;;;;;;;;;;;18.81;64.36;100638.75;6156481;23;1270;-87
2022/07/01 11:48:28;;;;;;;;;;;;;;;18.86;64.55;100643.31;6156037;23;818;-87
2022/07/01 11:50:54;;;;;;;;;;;;;;;18.88;64.23;100650.16;6154716;23;1881;-87
2022/07/01 11:53:19;;;;;;;;;;;;;;;18.88;62.68;100660.44;6156281;23;1000;-88
2022/07/01 11:55:47;;;;;;;;;;;;;;;18.70;61.36;100645.84;6154305;23;1381;-86
2022/07/01 11:58:12;;;;;;;;;;;;;;;18.70;61.81;100645.84;6155208;23;1288;-86
2022/07/01 12:00:38;;;;;;;;;;;;;;;18.82;60.59;100645.13;6154949;23;1148;-87
2022/07/01 12:03:03;;;;;;;;;;;;;;;18.87;61.74;100654.09;6154888;23;1232;-87
2022/07/01 12:05:29;;;;;;;;;;;;;;;18.95;61.36;100655.19;6156457;23;1259;-87
2022/07/01 12:07:54;;;;;;;;;;;;;;;19.08;61.58;100661.66;6155845;23;897;-85
2022/07/01 12:10:23;;;;;;;;;;;;;;;19.03;60.82;100650.75;6156417;23;1876;-86
2022/07/01 12:12:48;;;;;;;;;;;;;;;19.11;60.69;100645.16;6155936;23;1224;-87
2022/07/01 12:15:14;;;;;;;;;;;;;;;19.24;60.16;100648.84;6154557;23;1173;-87
2022/07/01 12:17:39;;;;;;;;;;;;;;;19.10;61.18;100637.16;6155375;23;1219;-86
2022/07/01 12:20:04;;;;;;;;;;;;;;;18.71;59.72;100639.16;6155530;23;941;-86
2022/07/01 12:22:29;;;;;;;;;;;;;;;18.86;61.59;100651.66;6155979;23;1196;-87
2022/07/01 12:25:09;;;;;;;;;;;;;;;18.81;63.02;100649.03;6154835;23;1259;-86
2022/07/01 12:27:35;;;;;;;;;;;;;;;18.79;62.85;100649.38;6154945;23;1223;-87
2022/07/01 12:30:00;;;;;;;;;;;;;;;18.71;61.40;100646.66;6154227;23;1908;-86
2022/07/01 12:32:27;;;;;;;;;;;;;;;18.62;59.91;100655.00;6155832;23;687;-87
2022/07/01 12:34:53;;;;;;;;;;;;;;;18.56;60.21;100644.34;6156532;23;1200;-86
2022/07/01 12:37:20;;;;;;;;;;;;;;;18.63;62.07;100647.50;6155010;23;1188;-86
2022/07/01 12:39:47;;;;;;;;;;;;;;;18.73;61.67;100653.47;6155175;23;1224;-86
2022/07/01 12:42:33;;;;;;;;;;;;;;;18.76;60.83;100655.59;6153981;23;1231;-86
2022/07/01 12:44:59;;;;;;;;;;;;;;;18.93;59.95;100651.94;6154406;23;1231;-87
2022/07/01 12:47:27;;;;;;;;;;;;;;;18.84;57.70;100656.69;6155226;23;1335;-87
2022/07/01 12:50:07;;;;;;;;;;;;;;;18.82;57.50;100656.22;6155462;23;1936;-86
2022/07/01 12:52:32;;;;;;;;;;;;;;;18.92;58.29;100653.09;6156004;23;794;-87
2022/07/01 12:54:58;;;;;;;;;;;;;;;19.02;59.31;100651.91;6154439;23;1223;-87
2022/07/01 12:57:30;;;;;;;;;;;;;;;19.14;58.64;100647.25;6154148;23;1435;-90
2022/07/01 12:59:56;;;;;;;;;;;;;;;19.40;59.97;100647.09;6154562;23;1069;-88
2022/07/01 13:02:21;;;;;;;;;;;;;;;19.59;59.12;100652.25;6154881;23;1308;-89
